African Highway — 3EOD8 — position and weather

sailwx.info

Track history (hours):
 
Tides and Currents Weather Stations Pressure Air Temp Water Temp Dewpoint Dewpoint Depression Visibility Wind Speed Wind Dir Waves Ship Positions

African Highway

Last reported at 2016-Apr-29 01:33 UTC. Time now 2016-Apr-29 01:55 UTC.
Position N 53°46' E 006°07'.

Length 154.5 m; beam 27.6 m.

Type: Cargo ship. MMSI: 353633000.

Date/timePositionNaut miles runAvg speedWind from/ knotsBaromVisibWave heightAir tempDewpointWater temp
2016-Apr-29 01:33N 53°46' E 006°07'1211.8
2016-Apr-29 00:33N 53°38' E 006°21'1111.4
2016-Apr-28 23:33N 53°34' E 006°39'1312.7
2016-Apr-28 22:34N 53°26' E 006°55'9 8.9
2016-Apr-28 21:33N 53°20' E 007°06'3 2.8
2016-Apr-28 20:33N 53°20' E 007°11'0 0.0
2016-Apr-28 19:33N 53°20' E 007°11'0 0.0
2016-Apr-28 18:33N 53°20' E 007°11'0 0.0
2016-Apr-28 17:33N 53°20' E 007°11'0 0.0
2016-Apr-28 16:33N 53°20' E 007°11'0 0.0
2016-Apr-28 15:33N 53°20' E 007°11'0 0.0
2016-Apr-28 14:33N 53°20' E 007°11'0 0.0
2016-Apr-28 13:33N 53°20' E 007°11'0 0.0
2016-Apr-28 12:33N 53°20' E 007°11'0 0.0
2016-Apr-28 11:33N 53°20' E 007°11'0 0.0
2016-Apr-28 10:33N 53°20' E 007°11'0 0.0
2016-Apr-28 09:33N 53°20' E 007°11'0 0.0
2016-Apr-28 08:33N 53°20' E 007°11'0 0.0
2016-Apr-28 07:33N 53°20' E 007°11'0 0.0
2016-Apr-28 06:33N 53°20' E 007°11'0 0.0
2016-Apr-28 05:33N 53°20' E 007°11'0 0.0
2016-Apr-28 04:33N 53°20' E 007°11'0 0.0
2016-Apr-28 03:33N 53°20' E 007°11'0 0.0
2016-Apr-28 02:33N 53°20' E 007°11'0 0.3
2016-Apr-28 01:33N 53°20' E 007°10'8 8.0
2016-Apr-28 00:33N 53°23' E 006°58'1414.1
2016-Apr-27 23:34N 53°33' E 006°41'1514.5
2016-Apr-27 22:33N 53°38' E 006°18'1212.0
2016-Apr-27 21:33N 53°36' E 005°58'1615.9
2016-Apr-27 20:34N 53°34' E 005°32'1616.0
2016-Apr-27 19:34N 53°29' E 005°06'15114.8
2016-Apr-27 09:24N 53°33' E 000°53'1214.6
2016-Apr-27 08:33N 53°32' E 000°32'1413.6
2016-Apr-27 07:33N 53°33' E 000°09'8 8.5
2016-Apr-27 06:33N 53°35' W 000°04'0 0.0
2016-Apr-27 05:31N 53°35' W 000°04'0 0.0
2016-Apr-27 04:31N 53°35' W 000°04'0 0.0
2016-Apr-27 03:31N 53°35' W 000°04'0 0.0
2016-Apr-27 02:31N 53°35' W 000°04'0 0.0
2016-Apr-27 01:31N 53°35' W 000°04'0 0.0
2016-Apr-27 00:31N 53°35' W 000°04'0 0.0
2016-Apr-26 23:31N 53°35' W 000°04'0 0.0
2016-Apr-26 22:31N 53°35' W 000°04'0 0.0
2016-Apr-26 21:31N 53°35' W 000°04'0 0.0
2016-Apr-26 20:31N 53°35' W 000°04'1 0.5
2016-Apr-26 19:34N 53°35' W 000°03'1111.1
2016-Apr-26 18:34N 53°33' E 000°15'6 6.2
2016-Apr-26 17:33N 53°33' E 000°26'5 4.8
2016-Apr-26 16:33N 53°33' E 000°34'15511.0
2016-Apr-26 02:28N 53°33' E 004°55'1314.7
2016-Apr-26 01:33N 53°37' E 005°16'1414.1
2016-Apr-26 00:33N 53°42' E 005°39'1312.8
2016-Apr-25 23:33N 53°44' E 006°00'1211.6
2016-Apr-25 22:33N 53°38' E 006°17'9 9.2
2016-Apr-25 21:33N 53°37' E 006°32'10 9.8
2016-Apr-25 20:33N 53°31' E 006°46'1110.7
2016-Apr-25 19:33N 53°23' E 006°58'8 7.6
2016-Apr-25 18:31N 53°20' E 007°10'0 0.1
2016-Apr-25 17:31N 53°20' E 007°10'0 0.0
2016-Apr-25 16:31N 53°20' E 007°10'0 0.0
2016-Apr-25 15:31N 53°20' E 007°10'0 0.0
2016-Apr-25 14:31N 53°20' E 007°10'0 0.0
2016-Apr-25 13:31N 53°20' E 007°10'0 0.0
2016-Apr-25 12:28N 53°20' E 007°10'0 0.0
2016-Apr-25 11:31N 53°20' E 007°10'0 0.0
2016-Apr-25 10:31N 53°20' E 007°10'0 0.0
2016-Apr-25 09:31N 53°20' E 007°10'0 0.0
2016-Apr-25 08:31N 53°20' E 007°10'0 0.0
2016-Apr-25 07:28N 53°20' E 007°10'0 0.0
2016-Apr-25 06:28N 53°20' E 007°10'0 0.0
2016-Apr-25 05:31N 53°20' E 007°10'0 0.0
2016-Apr-25 04:31N 53°20' E 007°10'0 0.0
2016-Apr-25 03:31N 53°20' E 007°10'0 0.0
2016-Apr-25 02:31N 53°20' E 007°10'0 0.0
2016-Apr-25 01:28N 53°20' E 007°10'0 0.0
2016-Apr-25 00:31N 53°20' E 007°10'0 0.0
2016-Apr-24 23:31N 53°20' E 007°10'0 0.0
2016-Apr-24 22:31N 53°20' E 007°10'0 0.0
2016-Apr-24 21:31N 53°20' E 007°10'0 0.0
2016-Apr-24 20:31N 53°20' E 007°10'0 0.0
2016-Apr-24 19:31N 53°20' E 007°10'0 0.0
2016-Apr-24 18:31N 53°20' E 007°10'0 0.0
2016-Apr-24 17:31N 53°20' E 007°10'0 0.0
2016-Apr-24 16:31N 53°20' E 007°10'0 0.0
2016-Apr-24 15:31N 53°20' E 007°10'0 0.0
2016-Apr-24 14:31N 53°20' E 007°10'0 0.0
2016-Apr-24 13:31N 53°20' E 007°10'0 0.0
2016-Apr-24 12:31N 53°20' E 007°10'0 0.0
2016-Apr-24 11:31N 53°20' E 007°10'0 0.0
2016-Apr-24 10:33N 53°20' E 007°10'3 2.9
2016-Apr-24 09:33N 53°20' E 007°05'1615.9
2016-Apr-24 08:34N 53°31' E 006°46'1615.6
2016-Apr-24 07:33N 53°37' E 006°22'6 6.4
2016-Apr-24 06:33N 53°37' E 006°11'1515.2
2016-Apr-24 05:33N 53°35' E 005°46'1515.3
2016-Apr-24 04:33N 53°32' E 005°20'1514.9
2016-Apr-24 03:33N 53°27' E 004°57'1813.2
2016-Apr-24 02:10N 53°14' E 004°36'914.0
2016-Apr-24 01:32N 53°06' E 004°28'1313.3
2016-Apr-24 00:33N 52°55' E 004°16'1413.2
2016-Apr-23 23:31N 52°44' E 004°04'1413.2
2016-Apr-23 22:29N 52°34' E 003°48'1413.0
2016-Apr-23 21:22N 52°23' E 003°32'6814.1
2016-Apr-23 16:31N 51°41' E 002°05'1515.7
2016-Apr-23 15:33N 51°32' E 001°45'1312.7
2016-Apr-23 14:33N 51°28' E 001°26'1413.6
2016-Apr-23 13:33N 51°29' E 001°05'1211.8
2016-Apr-23 12:33N 51°27' E 000°46'2 1.5
2016-Apr-23 11:32N 51°26' E 000°44'0 0.0
2016-Apr-23 10:32N 51°26' E 000°44'0 0.0
2016-Apr-23 09:32N 51°26' E 000°44'0 0.0
2016-Apr-23 08:32N 51°26' E 000°44'0 0.0
2016-Apr-23 07:32N 51°26' E 000°44'0 0.0
2016-Apr-23 06:32N 51°26' E 000°44'0 0.0
2016-Apr-23 05:29N 51°26' E 000°44'0 0.0
2016-Apr-23 04:32N 51°26' E 000°44'0 0.0
2016-Apr-23 03:32N 51°26' E 000°44'0 0.0
2016-Apr-23 02:32N 51°26' E 000°44'0 0.0
2016-Apr-23 01:32N 51°26' E 000°44'0 0.0
2016-Apr-23 00:32N 51°26' E 000°44'0 0.0
2016-Apr-22 23:32N 51°26' E 000°44'0 0.0
2016-Apr-22 22:32N 51°26' E 000°44'0 0.0
2016-Apr-22 21:32N 51°26' E 000°44'0 0.0
2016-Apr-22 20:32N 51°26' E 000°44'0 0.0
2016-Apr-22 19:32N 51°26' E 000°44'0 0.0
2016-Apr-22 18:29N 51°26' E 000°44'2 1.6
2016-Apr-22 17:34N 51°27' E 000°46'1110.8
2016-Apr-22 16:34N 51°30' E 001°03'1111.0
2016-Apr-22 15:34N 51°29' E 001°20'7 7.4
2016-Apr-22 14:34N 51°26' E 001°32'15 7.3
2016-Apr-22 12:33N 51°37' E 001°48'6 6.4
2016-Apr-22 11:34N 51°41' E 001°56'1313.3
2016-Apr-22 10:33N 51°50' E 002°12'11615.6
2016-Apr-22 03:08N 53°12' E 004°25'1115.4
2016-Apr-22 02:23N 53°23' E 004°33'1515.8
2016-Apr-22 01:27N 53°31' E 004°53'1516.8
2016-Apr-22 00:33N 53°37' E 005°16'1616.4
2016-Apr-21 23:33N 53°42' E 005°43'1515.5
2016-Apr-21 22:33N 53°47' E 006°07'1212.1
2016-Apr-21 21:33N 53°37' E 006°20'1111.5
2016-Apr-21 20:33N 53°35' E 006°38'1312.6
2016-Apr-21 19:33N 53°26' E 006°54'9 9.1
2016-Apr-21 18:33N 53°20' E 007°05'3 3.4
2016-Apr-21 17:32N 53°20' E 007°10'0 0.0
2016-Apr-21 16:32N 53°20' E 007°10'0 0.0
2016-Apr-21 15:29N 53°20' E 007°10'0 0.0
2016-Apr-21 14:32N 53°20' E 007°10'0 0.0
2016-Apr-21 13:29N 53°20' E 007°10'0 0.0
2016-Apr-21 12:32N 53°20' E 007°10'0 0.0
2016-Apr-21 11:32N 53°20' E 007°10'0 0.0
2016-Apr-21 10:33N 53°20' E 007°10'0 0.0
2016-Apr-21 09:32N 53°20' E 007°10'0 0.0
2016-Apr-21 08:33N 53°20' E 007°10'0 0.0
2016-Apr-21 07:32N 53°20' E 007°10'0 0.0
2016-Apr-21 06:29N 53°20' E 007°10'0 0.0
2016-Apr-21 05:26N 53°20' E 007°10'0 0.0
2016-Apr-21 04:32N 53°20' E 007°10'0 0.0
2016-Apr-21 03:32N 53°20' E 007°10'0 0.0
2016-Apr-21 02:32N 53°20' E 007°10'0 0.0
2016-Apr-21 01:32N 53°20' E 007°10'0 0.0
2016-Apr-21 00:29N 53°20' E 007°10'0 0.0
2016-Apr-20 23:32N 53°20' E 007°10'0 0.0
2016-Apr-20 22:32N 53°20' E 007°10'3 3.1
2016-Apr-20 21:33N 53°20' E 007°05'1111.5
2016-Apr-20 20:33N 53°28' E 006°52'1515.5
2016-Apr-20 19:33N 53°37' E 006°30'9 8.9
2016-Apr-20 18:33N 53°37' E 006°15'1615.6
2016-Apr-20 17:33N 53°35' E 005°49'1616.5
2016-Apr-20 16:33N 53°32' E 005°22'1716.5
2016-Apr-20 15:33N 53°28' E 004°55'1614.8
2016-Apr-20 14:30N 53°27' E 004°29'1515.0
2016-Apr-20 13:30N 53°29' E 004°04'1614.8
2016-Apr-20 12:26N 53°31' E 003°38'3314.8
2016-Apr-20 10:12N 53°33' E 002°42'3015.0
2016-Apr-20 08:13N 53°32' E 001°52'1815.7
2016-Apr-20 07:04N 53°33' E 001°22'815.8
2016-Apr-20 06:34N 53°34' E 001°08'1515.3
2016-Apr-20 05:34N 53°32' E 000°43'1515.3
2016-Apr-20 04:33N 53°32' E 000°17'9 9.3
2016-Apr-20 03:33N 53°35' E 000°02'4 3.4
2016-Apr-20 02:31N 53°35' W 000°04'0 0.0
2016-Apr-20 01:31N 53°35' W 000°04'0 0.0
2016-Apr-20 00:31N 53°35' W 000°04'0 0.0
2016-Apr-19 23:28N 53°35' W 000°04'0 0.0
2016-Apr-19 22:31N 53°35' W 000°04'0 0.0
2016-Apr-19 21:31N 53°35' W 000°04'0 0.0
2016-Apr-19 20:31N 53°35' W 000°04'0 0.0
2016-Apr-19 19:31N 53°35' W 000°04'0 0.0
2016-Apr-19 18:28N 53°35' W 000°04'0 0.0
2016-Apr-19 17:31N 53°35' W 000°04'0 0.0
2016-Apr-19 16:31N 53°35' W 000°04'0 0.2
2016-Apr-19 15:33N 53°35' W 000°04'8 8.5
2016-Apr-19 14:34N 53°33' E 000°10'8 8.2
2016-Apr-19 13:34N 53°33' E 000°24'6 6.0
2016-Apr-19 12:33N 53°30' E 000°32'2 0.8
2016-Apr-19 09:33N 53°29' E 000°36'1 0.9
2016-Apr-19 08:29N 53°28' E 000°37'4 4.0
2016-Apr-19 07:33N 53°29' E 000°43'  
Track history (hours):
 
Tides and Currents Weather Stations Pressure Air Temp Water Temp Dewpoint Dewpoint Depression Visibility Wind Speed Wind Dir Waves Ship Positions

African Highway

Last reported at 2016-Apr-29 01:33 UTC. Time now 2016-Apr-29 01:55 UTC.
Position N 53°46' E 006°07'.

Length 154.5 m; beam 27.6 m.

Type: Cargo ship. MMSI: 353633000.

Date/timePositionNaut miles runAvg speedWind from/ knotsBaromVisibWave heightAir tempDewpointWater temp
2016-Apr-29 01:33N 53°46' E 006°07'1211.8
2016-Apr-29 00:33N 53°38' E 006°21'1111.4
2016-Apr-28 23:33N 53°34' E 006°39'1312.7
2016-Apr-28 22:34N 53°26' E 006°55'9 8.9
2016-Apr-28 21:33N 53°20' E 007°06'3 2.8
2016-Apr-28 20:33N 53°20' E 007°11'0 0.0
2016-Apr-28 19:33N 53°20' E 007°11'0 0.0
2016-Apr-28 18:33N 53°20' E 007°11'0 0.0
2016-Apr-28 17:33N 53°20' E 007°11'0 0.0
2016-Apr-28 16:33N 53°20' E 007°11'0 0.0
2016-Apr-28 15:33N 53°20' E 007°11'0 0.0
2016-Apr-28 14:33N 53°20' E 007°11'0 0.0
2016-Apr-28 13:33N 53°20' E 007°11'0 0.0
2016-Apr-28 12:33N 53°20' E 007°11'0 0.0
2016-Apr-28 11:33N 53°20' E 007°11'0 0.0
2016-Apr-28 10:33N 53°20' E 007°11'0 0.0
2016-Apr-28 09:33N 53°20' E 007°11'0 0.0
2016-Apr-28 08:33N 53°20' E 007°11'0 0.0
2016-Apr-28 07:33N 53°20' E 007°11'0 0.0
2016-Apr-28 06:33N 53°20' E 007°11'0 0.0
2016-Apr-28 05:33N 53°20' E 007°11'0 0.0
2016-Apr-28 04:33N 53°20' E 007°11'0 0.0
2016-Apr-28 03:33N 53°20' E 007°11'0 0.0
2016-Apr-28 02:33N 53°20' E 007°11'0 0.3
2016-Apr-28 01:33N 53°20' E 007°10'8 8.0
2016-Apr-28 00:33N 53°23' E 006°58'1414.1
2016-Apr-27 23:34N 53°33' E 006°41'1514.5
2016-Apr-27 22:33N 53°38' E 006°18'1212.0
2016-Apr-27 21:33N 53°36' E 005°58'1615.9
2016-Apr-27 20:34N 53°34' E 005°32'1616.0
2016-Apr-27 19:34N 53°29' E 005°06'15114.8
2016-Apr-27 09:24N 53°33' E 000°53'1214.6
2016-Apr-27 08:33N 53°32' E 000°32'1413.6
2016-Apr-27 07:33N 53°33' E 000°09'8 8.5
2016-Apr-27 06:33N 53°35' W 000°04'0 0.0
2016-Apr-27 05:31N 53°35' W 000°04'0 0.0
2016-Apr-27 04:31N 53°35' W 000°04'0 0.0
2016-Apr-27 03:31N 53°35' W 000°04'0 0.0
2016-Apr-27 02:31N 53°35' W 000°04'0 0.0
2016-Apr-27 01:31N 53°35' W 000°04'0 0.0
2016-Apr-27 00:31N 53°35' W 000°04'0 0.0
2016-Apr-26 23:31N 53°35' W 000°04'0 0.0
2016-Apr-26 22:31N 53°35' W 000°04'0 0.0
2016-Apr-26 21:31N 53°35' W 000°04'0 0.0
2016-Apr-26 20:31N 53°35' W 000°04'1 0.5
2016-Apr-26 19:34N 53°35' W 000°03'1111.1
2016-Apr-26 18:34N 53°33' E 000°15'6 6.2
2016-Apr-26 17:33N 53°33' E 000°26'5 4.8
2016-Apr-26 16:33N 53°33' E 000°34'15511.0
2016-Apr-26 02:28N 53°33' E 004°55'1314.7
2016-Apr-26 01:33N 53°37' E 005°16'1414.1
2016-Apr-26 00:33N 53°42' E 005°39'1312.8
2016-Apr-25 23:33N 53°44' E 006°00'1211.6
2016-Apr-25 22:33N 53°38' E 006°17'9 9.2
2016-Apr-25 21:33N 53°37' E 006°32'10 9.8
2016-Apr-25 20:33N 53°31' E 006°46'1110.7
2016-Apr-25 19:33N 53°23' E 006°58'8 7.6
2016-Apr-25 18:31N 53°20' E 007°10'0 0.1
2016-Apr-25 17:31N 53°20' E 007°10'0 0.0
2016-Apr-25 16:31N 53°20' E 007°10'0 0.0
2016-Apr-25 15:31N 53°20' E 007°10'0 0.0
2016-Apr-25 14:31N 53°20' E 007°10'0 0.0
2016-Apr-25 13:31N 53°20' E 007°10'0 0.0
2016-Apr-25 12:28N 53°20' E 007°10'0 0.0
2016-Apr-25 11:31N 53°20' E 007°10'0 0.0
2016-Apr-25 10:31N 53°20' E 007°10'0 0.0
2016-Apr-25 09:31N 53°20' E 007°10'0 0.0
2016-Apr-25 08:31N 53°20' E 007°10'0 0.0
2016-Apr-25 07:28N 53°20' E 007°10'0 0.0
2016-Apr-25 06:28N 53°20' E 007°10'0 0.0
2016-Apr-25 05:31N 53°20' E 007°10'0 0.0
2016-Apr-25 04:31N 53°20' E 007°10'0 0.0
2016-Apr-25 03:31N 53°20' E 007°10'0 0.0
2016-Apr-25 02:31N 53°20' E 007°10'0 0.0
2016-Apr-25 01:28N 53°20' E 007°10'0 0.0
2016-Apr-25 00:31N 53°20' E 007°10'0 0.0
2016-Apr-24 23:31N 53°20' E 007°10'0 0.0
2016-Apr-24 22:31N 53°20' E 007°10'0 0.0
2016-Apr-24 21:31N 53°20' E 007°10'0 0.0
2016-Apr-24 20:31N 53°20' E 007°10'0 0.0
2016-Apr-24 19:31N 53°20' E 007°10'0 0.0
2016-Apr-24 18:31N 53°20' E 007°10'0 0.0
2016-Apr-24 17:31N 53°20' E 007°10'0 0.0
2016-Apr-24 16:31N 53°20' E 007°10'0 0.0
2016-Apr-24 15:31N 53°20' E 007°10'0 0.0
2016-Apr-24 14:31N 53°20' E 007°10'0 0.0
2016-Apr-24 13:31N 53°20' E 007°10'0 0.0
2016-Apr-24 12:31N 53°20' E 007°10'0 0.0
2016-Apr-24 11:31N 53°20' E 007°10'0 0.0
2016-Apr-24 10:33N 53°20' E 007°10'3 2.9
2016-Apr-24 09:33N 53°20' E 007°05'1615.9
2016-Apr-24 08:34N 53°31' E 006°46'1615.6
2016-Apr-24 07:33N 53°37' E 006°22'6 6.4
2016-Apr-24 06:33N 53°37' E 006°11'1515.2
2016-Apr-24 05:33N 53°35' E 005°46'1515.3
2016-Apr-24 04:33N 53°32' E 005°20'1514.9
2016-Apr-24 03:33N 53°27' E 004°57'1813.2
2016-Apr-24 02:10N 53°14' E 004°36'914.0
2016-Apr-24 01:32N 53°06' E 004°28'1313.3
2016-Apr-24 00:33N 52°55' E 004°16'1413.2
2016-Apr-23 23:31N 52°44' E 004°04'1413.2
2016-Apr-23 22:29N 52°34' E 003°48'1413.0
2016-Apr-23 21:22N 52°23' E 003°32'6814.1
2016-Apr-23 16:31N 51°41' E 002°05'1515.7
2016-Apr-23 15:33N 51°32' E 001°45'1312.7
2016-Apr-23 14:33N 51°28' E 001°26'1413.6
2016-Apr-23 13:33N 51°29' E 001°05'1211.8
2016-Apr-23 12:33N 51°27' E 000°46'2 1.5
2016-Apr-23 11:32N 51°26' E 000°44'0 0.0
2016-Apr-23 10:32N 51°26' E 000°44'0 0.0
2016-Apr-23 09:32N 51°26' E 000°44'0 0.0
2016-Apr-23 08:32N 51°26' E 000°44'0 0.0
2016-Apr-23 07:32N 51°26' E 000°44'0 0.0
2016-Apr-23 06:32N 51°26' E 000°44'0 0.0
2016-Apr-23 05:29N 51°26' E 000°44'0 0.0
2016-Apr-23 04:32N 51°26' E 000°44'0 0.0
2016-Apr-23 03:32N 51°26' E 000°44'0 0.0
2016-Apr-23 02:32N 51°26' E 000°44'0 0.0
2016-Apr-23 01:32N 51°26' E 000°44'0 0.0
2016-Apr-23 00:32N 51°26' E 000°44'0 0.0
2016-Apr-22 23:32N 51°26' E 000°44'0 0.0
2016-Apr-22 22:32N 51°26' E 000°44'0 0.0
2016-Apr-22 21:32N 51°26' E 000°44'0 0.0
2016-Apr-22 20:32N 51°26' E 000°44'0 0.0
2016-Apr-22 19:32N 51°26' E 000°44'0 0.0
2016-Apr-22 18:29N 51°26' E 000°44'2 1.6
2016-Apr-22 17:34N 51°27' E 000°46'1110.8
2016-Apr-22 16:34N 51°30' E 001°03'1111.0
2016-Apr-22 15:34N 51°29' E 001°20'7 7.4
2016-Apr-22 14:34N 51°26' E 001°32'15 7.3
2016-Apr-22 12:33N 51°37' E 001°48'6 6.4
2016-Apr-22 11:34N 51°41' E 001°56'1313.3
2016-Apr-22 10:33N 51°50' E 002°12'11615.6
2016-Apr-22 03:08N 53°12' E 004°25'1115.4
2016-Apr-22 02:23N 53°23' E 004°33'1515.8
2016-Apr-22 01:27N 53°31' E 004°53'1516.8
2016-Apr-22 00:33N 53°37' E 005°16'1616.4
2016-Apr-21 23:33N 53°42' E 005°43'1515.5
2016-Apr-21 22:33N 53°47' E 006°07'1212.1
2016-Apr-21 21:33N 53°37' E 006°20'1111.5
2016-Apr-21 20:33N 53°35' E 006°38'1312.6
2016-Apr-21 19:33N 53°26' E 006°54'9 9.1
2016-Apr-21 18:33N 53°20' E 007°05'3 3.4
2016-Apr-21 17:32N 53°20' E 007°10'0 0.0
2016-Apr-21 16:32N 53°20' E 007°10'0 0.0
2016-Apr-21 15:29N 53°20' E 007°10'0 0.0
2016-Apr-21 14:32N 53°20' E 007°10'0 0.0
2016-Apr-21 13:29N 53°20' E 007°10'0 0.0
2016-Apr-21 12:32N 53°20' E 007°10'0 0.0
2016-Apr-21 11:32N 53°20' E 007°10'0 0.0
2016-Apr-21 10:33N 53°20' E 007°10'0 0.0
2016-Apr-21 09:32N 53°20' E 007°10'0 0.0
2016-Apr-21 08:33N 53°20' E 007°10'0 0.0
2016-Apr-21 07:32N 53°20' E 007°10'0 0.0
2016-Apr-21 06:29N 53°20' E 007°10'0 0.0
2016-Apr-21 05:26N 53°20' E 007°10'0 0.0
2016-Apr-21 04:32N 53°20' E 007°10'0 0.0
2016-Apr-21 03:32N 53°20' E 007°10'0 0.0
2016-Apr-21 02:32N 53°20' E 007°10'0 0.0
2016-Apr-21 01:32N 53°20' E 007°10'0 0.0
2016-Apr-21 00:29N 53°20' E 007°10'0 0.0
2016-Apr-20 23:32N 53°20' E 007°10'0 0.0
2016-Apr-20 22:32N 53°20' E 007°10'3 3.1
2016-Apr-20 21:33N 53°20' E 007°05'1111.5
2016-Apr-20 20:33N 53°28' E 006°52'1515.5
2016-Apr-20 19:33N 53°37' E 006°30'9 8.9
2016-Apr-20 18:33N 53°37' E 006°15'1615.6
2016-Apr-20 17:33N 53°35' E 005°49'1616.5
2016-Apr-20 16:33N 53°32' E 005°22'1716.5
2016-Apr-20 15:33N 53°28' E 004°55'1614.8
2016-Apr-20 14:30N 53°27' E 004°29'1515.0
2016-Apr-20 13:30N 53°29' E 004°04'1614.8
2016-Apr-20 12:26N 53°31' E 003°38'3314.8
2016-Apr-20 10:12N 53°33' E 002°42'3015.0
2016-Apr-20 08:13N 53°32' E 001°52'1815.7
2016-Apr-20 07:04N 53°33' E 001°22'815.8
2016-Apr-20 06:34N 53°34' E 001°08'1515.3
2016-Apr-20 05:34N 53°32' E 000°43'1515.3
2016-Apr-20 04:33N 53°32' E 000°17'9 9.3
2016-Apr-20 03:33N 53°35' E 000°02'4 3.4
2016-Apr-20 02:31N 53°35' W 000°04'0 0.0
2016-Apr-20 01:31N 53°35' W 000°04'0 0.0
2016-Apr-20 00:31N 53°35' W 000°04'0 0.0
2016-Apr-19 23:28N 53°35' W 000°04'0 0.0
2016-Apr-19 22:31N 53°35' W 000°04'0 0.0
2016-Apr-19 21:31N 53°35' W 000°04'0 0.0
2016-Apr-19 20:31N 53°35' W 000°04'0 0.0
2016-Apr-19 19:31N 53°35' W 000°04'0 0.0
2016-Apr-19 18:28N 53°35' W 000°04'0 0.0
2016-Apr-19 17:31N 53°35' W 000°04'0 0.0
2016-Apr-19 16:31N 53°35' W 000°04'0 0.2
2016-Apr-19 15:33N 53°35' W 000°04'8 8.5
2016-Apr-19 14:34N 53°33' E 000°10'8 8.2
2016-Apr-19 13:34N 53°33' E 000°24'6 6.0
2016-Apr-19 12:33N 53°30' E 000°32'2 0.8
2016-Apr-19 09:33N 53°29' E 000°36'1 0.9
2016-Apr-19 08:29N 53°28' E 000°37'4 4.0
2016-Apr-19 07:33N 53°29' E 000°43'  

Dump ship's entire track history